Nome の空港の天気 - METARとTAF

Nome, Nome Airport ( PAOM / OME ) - アメリカ アラスカ州Nome
飛行場実況気象(Metar)
観測時間02/17 05:53 AKST (02/17 14:53 UTC)
風向・風速東北東 3m/s
視程10km以上
天気現象
全天の4割程度の雲 雲底高度 3350m
気温-3.9℃
湿度85%
気圧1008.8hPa
METARPAOM 171453Z 06005KT 10SM SCT110 M04/M06 A2979 RMK AO2 SLP088 T10391061 58026 $
過去の天気等 Google飛行場航空写真 Wunderground天気予報

過去48時間のMETAR

飛行場予報(TAF)
発表時間: 2/17 02:41 AKST (2/17 11:41 UTC)
予報対象時間: 17日3時 AKST ~ 18日3時 AKST
風向・風速東 8m/s
視程10km以上
少しの雲 雲底高度 270m
全天を覆う雲 雲底高度 2130m
17日6時 AKST から
風向・風速東北東 4m/s
視程10km以上
天気現象弱い雪 もや
全天の4割程度の雲 雲底高度 460m
全天を覆う雲 雲底高度 1520m
17日13時 AKST から
風向・風速東北東 3m/s
PAOM 171141Z 1712/1812 09015KT P6SM FEW009 OVC070
FM171500 06008KT 6SM -SN BR SCT015 OVC050
FM172200 07005KT 1 1/2SM -SN BR OVC007